Portada
METAR-TAF:

METAR-TAF

Aeroports :

Phillip Goldston

Belize City, Belize

latitud: 17-32N, longitud: 088-18W, altitud: 5 m

Observació

L'informe es va fer fa 3 hores i 34 minuts, a les 00:00 UTC
Vent 3 kt del Est
Temperatura 24°C
Humitat 78%
Pressió 1015 hPa
Visibilitat 10 km o més
Escasses núvols a una alçada de 2400 ft

METAR: MZBZ 210000Z 09003KT 9999 FEW024 24/20 A2997 Q1015 NOSIG

Hora: 21:34 (03:34 UTC)

Pronòstic

L'informe es va fer fa 6 hores i 34 minuts, a les 21:00 UTC
Pronòstic vàlid del 21 a les 00 UTC al 21 a les 24 UTC
Vent 10 kt del Nord-Est
Visibilitat 10 km o més
Escasses núvols a una alçada de 2300 ft
Evolucionant progressivament
entre VR i B0 UTC
Evolucionant progressivament
l' 21 a les 17 UTC al 21 a les 19 UTC
Vent 10 kt del Nord-Est

TAF: MZBZ 202100Z 2100/2124 04010KT 9999 FEW023 BECMG VRB03KT BECMG 2117/2119 04010KT

Observacions i pronòstics meteorològics de més de 4000 aeroports (METAR i TAF).

Les estacions disponibles són els punts grocs i vermells al mapa.

Posi el ratolí al punt desitjat per veure el nom de l'estació.

Feu clic per veure les observacions i els pronòstics meteorològics.

Per canviar el mapa: feu clic els botons verds amb una creu de color negre per apropar; al botó verd amb un guió per allunyar la imatge; o en les fletxes verdes per a mapes adjacents.


METAR-TAF: